createdAt,value
2024-05-09T00:00:22.043Z,12.55
2024-05-09T00:05:31.657Z,13.33
2024-05-09T00:10:38.935Z,13.57
2024-05-09T00:15:47.689Z,13.20
2024-05-09T00:20:52.857Z,13.08
2024-05-09T00:25:58.124Z,13.43
2024-05-09T00:31:05.998Z,13.03
2024-05-09T00:36:11.191Z,12.33
2024-05-09T00:41:19.014Z,13.25
2024-05-09T00:46:27.643Z,13.15
2024-05-09T00:51:32.766Z,12.75
2024-05-09T00:56:38.275Z,12.93
2024-05-09T01:01:48.377Z,13.04
2024-05-09T01:06:53.643Z,12.51
2024-05-09T01:11:58.860Z,12.82
2024-05-09T01:17:07.353Z,12.03
2024-05-09T01:22:12.551Z,12.41
2024-05-09T01:27:21.174Z,12.26
2024-05-09T01:32:26.479Z,12.31
2024-05-09T01:37:31.733Z,12.47
2024-05-09T01:42:39.483Z,12.45
2024-05-09T01:47:44.823Z,12.28
2024-05-09T01:52:50.094Z,10.75
2024-05-09T01:57:57.887Z,12.12
2024-05-09T02:03:03.306Z,11.53
2024-05-09T02:08:09.628Z,11.92
2024-05-09T02:13:18.108Z,10.80
2024-05-09T02:18:23.771Z,11.48
2024-05-09T02:23:29.154Z,11.51
2024-05-09T02:28:37.084Z,11.21
2024-05-09T02:33:42.372Z,11.15
2024-05-09T02:38:47.784Z,11.58
2024-05-09T02:43:55.633Z,11.58
2024-05-09T02:49:00.886Z,11.46
2024-05-09T02:54:07.712Z,9.57
2024-05-09T02:59:16.022Z,11.37
2024-05-09T03:04:21.531Z,10.28
2024-05-09T03:09:26.939Z,11.21
2024-05-09T03:14:34.725Z,11.25
2024-05-09T03:19:40.144Z,11.03
2024-05-09T03:24:45.322Z,10.26
2024-05-09T03:29:53.316Z,11.13
2024-05-09T03:34:58.499Z,11.03
2024-05-09T03:40:05.584Z,10.25
2024-05-09T03:45:14.952Z,10.97
2024-05-09T03:50:26.325Z,10.42
2024-05-09T03:55:38.970Z,10.79
2024-05-09T04:00:46.793Z,10.75
2024-05-09T04:05:52.043Z,10.14
2024-05-09T04:10:57.214Z,10.66
2024-05-09T04:16:05.033Z,9.07
2024-05-09T04:21:10.400Z,10.48
2024-05-09T04:26:15.777Z,10.04
2024-05-09T04:31:23.668Z,10.35
2024-05-09T04:36:28.763Z,10.23
2024-05-09T04:41:34.005Z,10.33
2024-05-09T04:46:42.200Z,9.95
2024-05-09T04:51:47.358Z,10.39
2024-05-09T04:56:52.618Z,9.49
2024-05-09T05:02:00.554Z,10.20
2024-05-09T05:07:05.914Z,8.79
2024-05-09T05:12:31.632Z,10.10
2024-05-09T05:17:39.621Z,10.60
2024-05-09T05:22:44.929Z,10.58
2024-05-09T05:27:50.176Z,10.62
2024-05-09T05:32:58.003Z,9.42
2024-05-09T05:38:04.004Z,10.76
2024-05-09T05:43:10.773Z,10.30
2024-05-09T05:48:19.326Z,10.85
2024-05-09T05:53:24.839Z,9.12
2024-05-09T05:58:30.126Z,9.10
2024-05-09T06:03:38.459Z,9.41
2024-05-09T06:08:44.187Z,10.48
2024-05-09T06:13:49.445Z,10.88
2024-05-09T06:18:57.417Z,11.00
2024-05-09T06:24:06.541Z,11.36
2024-05-09T06:29:12.484Z,10.56
2024-05-09T06:34:21.754Z,10.76
2024-05-09T06:39:27.181Z,11.77
2024-05-09T06:44:32.672Z,11.40
2024-05-09T06:49:41.426Z,10.22
2024-05-09T06:54:46.561Z,11.96
2024-05-09T06:59:51.740Z,11.50
2024-05-09T07:04:59.560Z,12.30
2024-05-09T07:10:06.281Z,12.79
2024-05-09T07:15:13.394Z,12.98
2024-05-09T07:20:31.676Z,12.70
2024-05-09T07:25:39.838Z,13.10
2024-05-09T07:30:45.179Z,13.39
2024-05-09T07:35:53.167Z,13.85
2024-05-09T07:40:58.526Z,14.03
2024-05-09T07:47:03.854Z,13.11
2024-05-09T07:53:08.269Z,14.40
2024-05-09T07:56:57.560Z,12.61
2024-05-09T08:02:03.029Z,14.62
2024-05-09T08:07:11.174Z,14.99
2024-05-09T08:12:16.605Z,15.34
2024-05-09T08:17:21.823Z,15.54
2024-05-09T08:22:32.165Z,15.68
2024-05-09T08:27:37.390Z,15.80
2024-05-09T08:32:43.127Z,16.04
2024-05-09T08:37:53.537Z,16.27
2024-05-09T08:43:00.712Z,16.44
2024-05-09T08:48:07.795Z,15.74
2024-05-09T08:53:15.857Z,16.79
2024-05-09T08:58:21.768Z,16.20
2024-05-09T09:03:30.413Z,17.26
2024-05-09T09:08:41.569Z,17.50
2024-05-09T09:13:46.699Z,17.67
2024-05-09T09:18:52.134Z,17.80
2024-05-09T09:24:00.534Z,17.67
2024-05-09T09:29:05.722Z,18.00
2024-05-09T09:34:11.490Z,17.50
2024-05-09T09:39:23.163Z,16.99
2024-05-09T09:44:28.526Z,17.90
2024-05-09T09:49:36.780Z,18.80
2024-05-09T09:54:46.670Z,19.11
2024-05-09T09:59:53.121Z,18.86
2024-05-09T10:04:59.117Z,19.13
2024-05-09T10:10:10.982Z,19.11
2024-05-09T10:15:22.451Z,19.18
2024-05-09T10:20:30.932Z,19.19
2024-05-09T10:25:40.462Z,19.28
2024-05-09T10:30:50.351Z,19.28
2024-05-09T10:35:55.659Z,19.14
2024-05-09T10:41:03.701Z,19.58
2024-05-09T10:46:09.395Z,19.63
2024-05-09T10:51:16.207Z,19.58
2024-05-09T10:56:23.977Z,19.09
2024-05-09T11:01:29.678Z,20.56
2024-05-09T11:06:38.140Z,19.35
2024-05-09T11:11:46.201Z,20.91
2024-05-09T11:17:01.430Z,21.33
2024-05-09T11:22:07.260Z,21.19
2024-05-09T11:27:15.432Z,21.03
2024-05-09T11:32:32.709Z,21.30
2024-05-09T11:37:40.812Z,20.91
2024-05-09T11:42:51.505Z,20.26
2024-05-09T11:47:58.327Z,21.89
2024-05-09T11:53:03.628Z,22.24
2024-05-09T11:58:12.441Z,22.27
2024-05-09T12:03:17.790Z,21.33
2024-05-09T12:08:23.022Z,20.67
2024-05-09T12:13:30.883Z,22.73
2024-05-09T12:18:36.544Z,22.08
2024-05-09T12:23:41.773Z,23.04
2024-05-09T12:28:49.533Z,23.07
2024-05-09T12:33:54.843Z,23.07
2024-05-09T12:39:00.097Z,23.27
2024-05-09T12:44:08.257Z,22.94
2024-05-09T12:49:16.392Z,22.19
2024-05-09T12:54:22.454Z,23.11
2024-05-09T12:59:30.296Z,23.12
2024-05-09T13:04:35.635Z,22.66
2024-05-09T13:09:41.072Z,22.69
2024-05-09T13:14:48.830Z,22.92
2024-05-09T13:19:54.073Z,22.64
2024-05-09T13:24:59.390Z,22.84
2024-05-09T13:30:12.003Z,23.11
2024-05-09T13:35:22.976Z,23.28
2024-05-09T13:40:33.586Z,23.55
2024-05-09T13:45:43.722Z,23.81
2024-05-09T13:50:48.921Z,23.98
2024-05-09T13:55:54.236Z,23.72
2024-05-09T14:01:02.313Z,24.34
2024-05-09T14:06:12.080Z,24.16
2024-05-09T14:11:18.309Z,23.92
2024-05-09T14:16:26.360Z,24.00
2024-05-09T14:21:31.720Z,23.95
2024-05-09T14:26:36.918Z,24.09
2024-05-09T14:31:44.760Z,23.98
2024-05-09T14:36:50.024Z,24.07
2024-05-09T14:41:55.331Z,23.89
2024-05-09T14:47:03.193Z,24.27
2024-05-09T14:52:09.531Z,23.86
2024-05-09T14:57:14.714Z,23.95
2024-05-09T15:02:22.636Z,23.96
2024-05-09T15:07:28.082Z,24.22
2024-05-09T15:12:33.315Z,24.29
2024-05-09T15:17:41.658Z,23.28
2024-05-09T15:22:46.843Z,24.55
2024-05-09T15:27:52.147Z,24.66
2024-05-09T15:33:00.673Z,24.87
2024-05-09T15:38:09.612Z,25.21
2024-05-09T15:43:15.035Z,25.51
2024-05-09T15:48:23.079Z,24.39
2024-05-09T15:53:29.136Z,25.41
2024-05-09T15:58:34.332Z,25.14
2024-05-09T16:03:42.274Z,24.25
2024-05-09T16:08:47.662Z,25.55
2024-05-09T16:13:52.798Z,25.64
2024-05-09T16:19:00.674Z,25.55
2024-05-09T16:24:06.057Z,25.82
2024-05-09T16:29:11.423Z,25.57
2024-05-09T16:34:19.316Z,25.46
2024-05-09T16:39:24.453Z,25.11
2024-05-09T16:44:31.019Z,25.04
2024-05-09T16:49:39.726Z,25.20
2024-05-09T16:54:44.966Z,25.17
2024-05-09T16:59:50.222Z,25.26
2024-05-09T17:04:58.165Z,24.83
2024-05-09T17:10:03.984Z,24.92
2024-05-09T17:15:10.308Z,25.01
2024-05-09T17:20:28.898Z,25.00
2024-05-09T17:25:38.606Z,24.80
2024-05-09T17:30:44.339Z,24.86
2024-05-09T17:35:52.840Z,24.55
2024-05-09T17:40:58.208Z,24.80
2024-05-09T17:46:03.455Z,24.38
2024-05-09T17:51:11.386Z,24.54
2024-05-09T17:56:17.496Z,24.02
2024-05-09T18:01:24.082Z,24.06
2024-05-09T18:06:31.849Z,24.08
2024-05-09T18:11:37.089Z,23.43
2024-05-09T18:16:42.271Z,23.05
2024-05-09T18:21:51.758Z,22.91
2024-05-09T18:26:56.964Z,22.83
2024-05-09T18:32:02.154Z,22.47
2024-05-09T18:37:10.158Z,22.48
2024-05-09T18:42:15.446Z,21.67
2024-05-09T18:47:20.975Z,21.40
2024-05-09T18:52:28.907Z,21.93
2024-05-09T18:57:34.779Z,20.98
2024-05-09T19:02:40.216Z,21.26
2024-05-09T19:07:48.192Z,21.19
2024-05-09T19:12:53.441Z,21.30
2024-05-09T19:17:58.779Z,20.74
2024-05-09T19:23:07.654Z,21.12
2024-05-09T19:28:12.980Z,20.90
2024-05-09T19:33:18.500Z,20.77
2024-05-09T19:38:26.392Z,20.31
2024-05-09T19:43:33.806Z,20.34
2024-05-09T19:48:40.684Z,20.04
2024-05-09T19:53:50.632Z,20.13
2024-05-09T19:58:55.797Z,19.72
2024-05-09T20:04:01.115Z,20.03
2024-05-09T20:09:09.165Z,19.91
2024-05-09T20:14:14.860Z,19.77
2024-05-09T20:19:20.204Z,19.64
2024-05-09T20:24:28.041Z,19.08
2024-05-09T20:29:34.231Z,19.36
2024-05-09T20:34:39.591Z,19.13
2024-05-09T20:39:47.544Z,18.94
2024-05-09T20:44:52.697Z,18.99
2024-05-09T20:49:57.941Z,18.81
2024-05-09T20:55:05.831Z,18.53
2024-05-09T21:00:18.366Z,18.65
2024-05-09T21:05:24.568Z,18.22
2024-05-09T21:10:33.960Z,18.10
2024-05-09T21:15:39.818Z,18.17
2024-05-09T21:20:45.241Z,18.01
2024-05-09T21:25:53.035Z,17.95
2024-05-09T21:30:58.557Z,17.75
2024-05-09T21:36:03.683Z,17.58
2024-05-09T21:41:12.636Z,17.36
2024-05-09T21:46:17.772Z,15.97
2024-05-09T21:51:22.911Z,17.26
2024-05-09T21:56:30.821Z,16.74
2024-05-09T22:01:36.201Z,15.68
2024-05-09T22:06:41.516Z,16.34
2024-05-09T22:11:52.034Z,16.71
2024-05-09T22:16:58.074Z,16.75
2024-05-09T22:22:03.282Z,16.48
2024-05-09T22:27:11.965Z,16.50
2024-05-09T22:32:17.266Z,16.41
2024-05-09T22:37:22.477Z,16.03
2024-05-09T22:42:30.263Z,15.94
2024-05-09T22:47:35.648Z,15.42
2024-05-09T22:52:40.919Z,15.57
2024-05-09T22:57:48.776Z,15.83
2024-05-09T23:02:57.128Z,15.68
2024-05-09T23:08:03.423Z,15.41
2024-05-09T23:13:11.269Z,15.58
2024-05-09T23:18:16.563Z,15.24
2024-05-09T23:23:22.085Z,14.92
2024-05-09T23:28:30.413Z,14.92
2024-05-09T23:33:35.875Z,15.10
2024-05-09T23:38:41.827Z,15.00
2024-05-09T23:43:49.608Z,14.98
2024-05-09T23:48:54.832Z,14.69
2024-05-09T23:54:00.088Z,14.65
2024-05-09T23:59:08.634Z,14.61
